sensor_id;sensor_type;location;lat;lon;timestamp;pressure;altitude;pressure_sealevel;temperature;humidity
38852;BME280;24605;50.092;9.182;2023-03-22T00:01:51;97667.72;;;7.01;100.00
38852;BME280;24605;50.092;9.182;2023-03-22T00:04:18;97670.09;;;7.13;100.00
38852;BME280;24605;50.092;9.182;2023-03-22T00:06:45;97657.69;;;7.15;100.00
38852;BME280;24605;50.092;9.182;2023-03-22T00:09:11;97658.75;;;7.22;100.00
38852;BME280;24605;50.092;9.182;2023-03-22T00:11:39;97643.78;;;6.98;100.00
38852;BME280;24605;50.092;9.182;2023-03-22T00:14:05;97649.94;;;6.97;100.00
38852;BME280;24605;50.092;9.182;2023-03-22T00:16:32;97655.78;;;6.90;100.00
38852;BME280;24605;50.092;9.182;2023-03-22T00:18:58;97654.94;;;6.90;100.00
38852;BME280;24605;50.092;9.182;2023-03-22T00:21:25;97652.44;;;6.80;100.00
38852;BME280;24605;50.092;9.182;2023-03-22T00:23:51;97643.09;;;6.69;100.00
38852;BME280;24605;50.092;9.182;2023-03-22T00:26:18;97642.38;;;6.59;100.00
38852;BME280;24605;50.092;9.182;2023-03-22T00:28:46;97628.31;;;6.52;100.00
38852;BME280;24605;50.092;9.182;2023-03-22T00:31:12;97637.22;;;6.49;100.00
38852;BME280;24605;50.092;9.182;2023-03-22T00:33:38;97629.72;;;6.46;100.00
38852;BME280;24605;50.092;9.182;2023-03-22T00:36:07;97626.63;;;6.42;100.00
38852;BME280;24605;50.092;9.182;2023-03-22T00:38:34;97625.56;;;6.35;100.00
38852;BME280;24605;50.092;9.182;2023-03-22T00:41:07;97625.56;;;6.35;100.00
38852;BME280;24605;50.092;9.182;2023-03-22T00:43:34;97625.56;;;6.53;100.00
38852;BME280;24605;50.092;9.182;2023-03-22T00:46:02;97617.56;;;6.55;100.00
38852;BME280;24605;50.092;9.182;2023-03-22T00:48:28;97621.16;;;6.54;100.00
38852;BME280;24605;50.092;9.182;2023-03-22T00:50:55;97616.06;;;6.70;100.00
38852;BME280;24605;50.092;9.182;2023-03-22T00:53:22;97617.56;;;6.73;100.00
38852;BME280;24605;50.092;9.182;2023-03-22T00:55:48;97612.03;;;6.76;100.00
38852;BME280;24605;50.092;9.182;2023-03-22T00:58:15;97619.09;;;6.84;100.00
38852;BME280;24605;50.092;9.182;2023-03-22T01:00:41;97615.50;;;6.85;100.00
38852;BME280;24605;50.092;9.182;2023-03-22T01:03:10;97611.63;;;6.89;100.00
38852;BME280;24605;50.092;9.182;2023-03-22T01:05:38;97608.53;;;6.94;100.00
38852;BME280;24605;50.092;9.182;2023-03-22T01:08:05;97606.81;;;7.02;100.00
38852;BME280;24605;50.092;9.182;2023-03-22T01:10:33;97615.47;;;7.11;100.00
38852;BME280;24605;50.092;9.182;2023-03-22T01:13:00;97605.06;;;7.11;100.00
38852;BME280;24605;50.092;9.182;2023-03-22T01:15:26;97605.06;;;7.11;100.00
38852;BME280;24605;50.092;9.182;2023-03-22T01:17:53;97606.91;;;7.19;100.00
38852;BME280;24605;50.092;9.182;2023-03-22T01:20:21;97598.94;;;7.29;100.00
38852;BME280;24605;50.092;9.182;2023-03-22T01:22:47;97594.06;;;7.26;100.00
38852;BME280;24605;50.092;9.182;2023-03-22T01:25:14;97597.19;;;7.29;100.00
38852;BME280;24605;50.092;9.182;2023-03-22T01:27:41;97595.38;;;7.30;100.00
38852;BME280;24605;50.092;9.182;2023-03-22T01:30:08;97597.50;;;7.34;100.00
38852;BME280;24605;50.092;9.182;2023-03-22T01:32:35;97589.03;;;7.41;100.00
38852;BME280;24605;50.092;9.182;2023-03-22T01:35:02;97590.09;;;7.56;100.00
38852;BME280;24605;50.092;9.182;2023-03-22T01:37:30;97593.69;;;7.55;100.00
38852;BME280;24605;50.092;9.182;2023-03-22T01:39:57;97588.47;;;7.63;100.00
38852;BME280;24605;50.092;9.182;2023-03-22T01:42:25;97587.50;;;7.56;100.00
38852;BME280;24605;50.092;9.182;2023-03-22T01:45:29;97586.84;;;7.62;100.00
38852;BME280;24605;50.092;9.182;2023-03-22T01:48:01;97574.25;;;7.49;100.00
38852;BME280;24605;50.092;9.182;2023-03-22T01:50:29;97584.53;;;7.51;100.00
38852;BME280;24605;50.092;9.182;2023-03-22T01:52:59;97569.03;;;7.41;100.00
38852;BME280;24605;50.092;9.182;2023-03-22T01:55:29;97577.16;;;7.38;100.00
38852;BME280;24605;50.092;9.182;2023-03-22T01:57:58;97581.09;;;7.42;100.00
38852;BME280;24605;50.092;9.182;2023-03-22T02:00:25;97575.84;;;7.34;100.00
38852;BME280;24605;50.092;9.182;2023-03-22T02:02:52;97564.41;;;7.27;100.00
38852;BME280;24605;50.092;9.182;2023-03-22T02:05:19;97558.81;;;7.13;100.00
38852;BME280;24605;50.092;9.182;2023-03-22T02:07:46;97570.16;;;7.04;100.00
38852;BME280;24605;50.092;9.182;2023-03-22T02:10:18;97561.31;;;6.88;100.00
38852;BME280;24605;50.092;9.182;2023-03-22T02:12:56;97568.19;;;6.98;100.00
38852;BME280;24605;50.092;9.182;2023-03-22T02:15:28;97574.63;;;6.85;100.00
38852;BME280;24605;50.092;9.182;2023-03-22T02:18:11;97574.97;;;6.82;100.00
38852;BME280;24605;50.092;9.182;2023-03-22T02:20:59;97572.31;;;6.74;100.00
38852;BME280;24605;50.092;9.182;2023-03-22T02:23:43;97564.94;;;6.69;100.00
38852;BME280;24605;50.092;9.182;2023-03-22T02:29:20;97554.72;;;6.50;100.00
38852;BME280;24605;50.092;9.182;2023-03-22T02:32:03;97545.56;;;6.46;100.00
38852;BME280;24605;50.092;9.182;2023-03-22T02:37:42;97526.28;;;6.30;100.00
38852;BME280;24605;50.092;9.182;2023-03-22T02:40:16;97549.72;;;6.56;100.00
38852;BME280;24605;50.092;9.182;2023-03-22T02:42:54;97544.91;;;6.70;100.00
38852;BME280;24605;50.092;9.182;2023-03-22T02:45:25;97549.19;;;6.79;100.00
38852;BME280;24605;50.092;9.182;2023-03-22T02:48:00;97550.38;;;6.85;100.00
38852;BME280;24605;50.092;9.182;2023-03-22T02:50:36;97557.75;;;6.98;100.00
38852;BME280;24605;50.092;9.182;2023-03-22T02:53:06;97553.09;;;7.10;100.00
38852;BME280;24605;50.092;9.182;2023-03-22T02:55:39;97551.47;;;7.09;100.00
38852;BME280;24605;50.092;9.182;2023-03-22T02:58:10;97553.94;;;7.18;100.00
38852;BME280;24605;50.092;9.182;2023-03-22T03:00:38;97547.25;;;7.16;100.00
38852;BME280;24605;50.092;9.182;2023-03-22T03:03:09;97552.19;;;7.27;100.00
38852;BME280;24605;50.092;9.182;2023-03-22T03:05:38;97553.28;;;7.16;100.00
38852;BME280;24605;50.092;9.182;2023-03-22T03:08:07;97551.31;;;7.18;100.00
38852;BME280;24605;50.092;9.182;2023-03-22T03:10:39;97554.72;;;7.11;100.00
38852;BME280;24605;50.092;9.182;2023-03-22T03:13:10;97561.41;;;7.13;100.00
38852;BME280;24605;50.092;9.182;2023-03-22T03:15:38;97556.91;;;7.24;100.00
38852;BME280;24605;50.092;9.182;2023-03-22T03:18:18;97546.16;;;7.27;100.00
38852;BME280;24605;50.092;9.182;2023-03-22T03:20:57;97553.84;;;7.36;100.00
38852;BME280;24605;50.092;9.182;2023-03-22T03:23:32;97557.09;;;7.30;100.00
38852;BME280;24605;50.092;9.182;2023-03-22T03:26:06;97548.00;;;7.51;100.00
38852;BME280;24605;50.092;9.182;2023-03-22T03:28:41;97565.66;;;7.57;100.00
38852;BME280;24605;50.092;9.182;2023-03-22T03:31:18;97549.19;;;7.65;100.00
38852;BME280;24605;50.092;9.182;2023-03-22T03:33:56;97540.06;;;7.69;100.00
38852;BME280;24605;50.092;9.182;2023-03-22T03:36:27;97545.97;;;7.96;100.00
38852;BME280;24605;50.092;9.182;2023-03-22T03:38:55;97546.94;;;7.87;100.00
38852;BME280;24605;50.092;9.182;2023-03-22T03:41:26;97536.31;;;7.80;100.00
38852;BME280;24605;50.092;9.182;2023-03-22T03:43:54;97531.47;;;7.93;100.00
38852;BME280;24605;50.092;9.182;2023-03-22T03:46:23;97536.19;;;8.06;100.00
38852;BME280;24605;50.092;9.182;2023-03-22T03:48:50;97534.69;;;7.95;100.00
38852;BME280;24605;50.092;9.182;2023-03-22T03:51:17;97537.00;;;7.82;100.00
38852;BME280;24605;50.092;9.182;2023-03-22T03:53:44;97534.03;;;7.77;100.00
38852;BME280;24605;50.092;9.182;2023-03-22T03:56:11;97528.19;;;7.75;100.00
38852;BME280;24605;50.092;9.182;2023-03-22T03:58:39;97528.50;;;7.72;100.00
38852;BME280;24605;50.092;9.182;2023-03-22T04:01:06;97530.13;;;7.73;100.00
38852;BME280;24605;50.092;9.182;2023-03-22T04:03:33;97522.63;;;7.69;100.00
38852;BME280;24605;50.092;9.182;2023-03-22T04:05:59;97526.38;;;7.67;100.00
38852;BME280;24605;50.092;9.182;2023-03-22T04:08:26;97512.03;;;7.79;100.00
38852;BME280;24605;50.092;9.182;2023-03-22T04:10:52;97523.94;;;7.82;100.00
38852;BME280;24605;50.092;9.182;2023-03-22T04:13:19;97521.34;;;7.82;100.00
38852;BME280;24605;50.092;9.182;2023-03-22T04:15:52;97500.78;;;7.79;100.00
38852;BME280;24605;50.092;9.182;2023-03-22T04:18:19;97507.63;;;7.88;100.00
38852;BME280;24605;50.092;9.182;2023-03-22T04:20:45;97499.31;;;8.01;100.00
38852;BME280;24605;50.092;9.182;2023-03-22T04:23:14;97500.94;;;7.86;100.00
38852;BME280;24605;50.092;9.182;2023-03-22T04:25:40;97491.97;;;7.88;100.00
38852;BME280;24605;50.092;9.182;2023-03-22T04:28:07;97489.53;;;7.78;100.00
38852;BME280;24605;50.092;9.182;2023-03-22T04:30:34;97497.69;;;8.00;100.00
38852;BME280;24605;50.092;9.182;2023-03-22T04:33:02;97501.25;;;7.91;100.00
38852;BME280;24605;50.092;9.182;2023-03-22T04:35:31;97497.19;;;7.80;100.00
38852;BME280;24605;50.092;9.182;2023-03-22T04:37:58;97497.19;;;7.96;100.00
38852;BME280;24605;50.092;9.182;2023-03-22T04:40:25;97487.72;;;7.95;100.00
38852;BME280;24605;50.092;9.182;2023-03-22T04:42:56;97484.97;;;7.97;100.00
38852;BME280;24605;50.092;9.182;2023-03-22T04:45:23;97482.50;;;8.04;100.00
38852;BME280;24605;50.092;9.182;2023-03-22T04:47:53;97478.25;;;8.03;100.00
38852;BME280;24605;50.092;9.182;2023-03-22T04:50:21;97481.34;;;7.81;100.00
38852;BME280;24605;50.092;9.182;2023-03-22T04:52:48;97422.31;;;7.64;100.00
38852;BME280;24605;50.092;9.182;2023-03-22T04:55:15;97485.59;;;7.91;100.00
38852;BME280;24605;50.092;9.182;2023-03-22T04:57:41;97478.91;;;7.88;100.00
38852;BME280;24605;50.092;9.182;2023-03-22T05:00:08;97482.03;;;7.83;100.00
38852;BME280;24605;50.092;9.182;2023-03-22T05:02:35;97470.59;;;7.84;100.00
38852;BME280;24605;50.092;9.182;2023-03-22T05:05:05;97476.97;;;7.90;100.00
38852;BME280;24605;50.092;9.182;2023-03-22T05:07:33;97476.13;;;7.90;100.00
38852;BME280;24605;50.092;9.182;2023-03-22T05:10:00;97484.63;;;8.00;100.00
38852;BME280;24605;50.092;9.182;2023-03-22T05:12:27;97481.03;;;7.93;100.00
38852;BME280;24605;50.092;9.182;2023-03-22T05:14:53;97482.50;;;7.95;100.00
38852;BME280;24605;50.092;9.182;2023-03-22T05:17:20;97483.47;;;7.94;100.00
38852;BME280;24605;50.092;9.182;2023-03-22T05:19:46;97486.75;;;7.96;100.00
38852;BME280;24605;50.092;9.182;2023-03-22T05:22:13;97489.34;;;7.96;100.00
38852;BME280;24605;50.092;9.182;2023-03-22T05:24:40;97483.81;;;7.99;100.00
38852;BME280;24605;50.092;9.182;2023-03-22T05:27:07;97485.13;;;7.95;100.00
38852;BME280;24605;50.092;9.182;2023-03-22T05:29:35;97480.72;;;7.88;100.00
38852;BME280;24605;50.092;9.182;2023-03-22T05:32:01;97490.34;;;7.79;100.00
38852;BME280;24605;50.092;9.182;2023-03-22T05:34:28;97481.34;;;7.65;100.00
38852;BME280;24605;50.092;9.182;2023-03-22T05:36:59;97485.59;;;7.66;100.00
38852;BME280;24605;50.092;9.182;2023-03-22T05:39:26;97491.66;;;7.66;100.00
38852;BME280;24605;50.092;9.182;2023-03-22T05:41:54;97490.31;;;7.62;100.00
38852;BME280;24605;50.092;9.182;2023-03-22T05:44:20;97497.97;;;7.64;100.00
38852;BME280;24605;50.092;9.182;2023-03-22T05:46:47;97501.75;;;7.69;100.00
38852;BME280;24605;50.092;9.182;2023-03-22T05:49:13;97501.91;;;7.76;100.00
38852;BME280;24605;50.092;9.182;2023-03-22T05:51:40;97507.63;;;7.80;100.00
38852;BME280;24605;50.092;9.182;2023-03-22T05:54:06;97506.81;;;7.88;100.00
38852;BME280;24605;50.092;9.182;2023-03-22T05:56:34;97496.38;;;7.88;100.00
38852;BME280;24605;50.092;9.182;2023-03-22T05:59:02;97500.28;;;7.92;100.00
38852;BME280;24605;50.092;9.182;2023-03-22T06:01:29;97508.94;;;8.00;100.00
38852;BME280;24605;50.092;9.182;2023-03-22T06:03:57;97470.13;;;7.81;100.00
38852;BME280;24605;50.092;9.182;2023-03-22T06:06:24;97492.63;;;7.98;100.00
38852;BME280;24605;50.092;9.182;2023-03-22T06:08:52;97506.81;;;8.04;100.00
38852;BME280;24605;50.092;9.182;2023-03-22T06:11:18;97504.88;;;8.06;100.00
38852;BME280;24605;50.092;9.182;2023-03-22T06:13:45;97500.13;;;8.18;100.00
38852;BME280;24605;50.092;9.182;2023-03-22T06:16:13;97500.63;;;8.13;100.00
38852;BME280;24605;50.092;9.182;2023-03-22T06:18:39;97498.81;;;8.06;100.00
38852;BME280;24605;50.092;9.182;2023-03-22T06:21:06;97472.91;;;7.96;100.00
38852;BME280;24605;50.092;9.182;2023-03-22T06:23:33;97460.97;;;7.85;100.00
38852;BME280;24605;50.092;9.182;2023-03-22T06:26:00;97492.13;;;8.11;100.00
38852;BME280;24605;50.092;9.182;2023-03-22T06:28:26;97507.94;;;8.26;100.00
38852;BME280;24605;50.092;9.182;2023-03-22T06:30:54;97510.69;;;8.33;100.00
38852;BME280;24605;50.092;9.182;2023-03-22T06:33:22;97516.44;;;8.37;100.00
38852;BME280;24605;50.092;9.182;2023-03-22T06:35:48;97510.56;;;8.51;100.00
38852;BME280;24605;50.092;9.182;2023-03-22T06:38:15;97514.78;;;8.52;100.00
38852;BME280;24605;50.092;9.182;2023-03-22T06:40:43;97505.31;;;8.59;100.00
38852;BME280;24605;50.092;9.182;2023-03-22T06:43:10;97504.81;;;8.64;100.00
38852;BME280;24605;50.092;9.182;2023-03-22T06:45:36;97502.34;;;8.71;100.00
38852;BME280;24605;50.092;9.182;2023-03-22T06:48:03;97509.47;;;8.85;100.00
38852;BME280;24605;50.092;9.182;2023-03-22T06:50:31;97509.03;;;8.73;100.00
38852;BME280;24605;50.092;9.182;2023-03-22T06:53:02;97511.09;;;8.86;100.00
38852;BME280;24605;50.092;9.182;2023-03-22T06:55:28;97515.66;;;8.92;100.00
38852;BME280;24605;50.092;9.182;2023-03-22T06:57:57;97514.13;;;9.06;100.00
38852;BME280;24605;50.092;9.182;2023-03-22T07:00:23;97520.00;;;9.08;100.00
38852;BME280;24605;50.092;9.182;2023-03-22T07:02:50;97511.47;;;9.15;100.00
38852;BME280;24605;50.092;9.182;2023-03-22T07:05:16;97524.41;;;9.16;100.00
38852;BME280;24605;50.092;9.182;2023-03-22T07:07:44;97513.47;;;9.04;100.00
38852;BME280;24605;50.092;9.182;2023-03-22T07:10:11;97527.31;;;9.21;100.00
38852;BME280;24605;50.092;9.182;2023-03-22T07:12:37;97530.16;;;9.35;100.00
38852;BME280;24605;50.092;9.182;2023-03-22T07:15:05;97526.09;;;9.32;100.00
38852;BME280;24605;50.092;9.182;2023-03-22T07:17:31;97523.28;;;9.42;100.00
38852;BME280;24605;50.092;9.182;2023-03-22T07:19:58;97522.94;;;9.45;100.00
38852;BME280;24605;50.092;9.182;2023-03-22T07:22:24;97525.22;;;9.48;100.00
38852;BME280;24605;50.092;9.182;2023-03-22T07:24:52;97528.47;;;9.50;100.00
38852;BME280;24605;50.092;9.182;2023-03-22T07:27:19;97530.22;;;9.58;100.00
38852;BME280;24605;50.092;9.182;2023-03-22T07:29:45;97532.63;;;9.68;100.00
38852;BME280;24605;50.092;9.182;2023-03-22T07:32:12;97517.25;;;9.65;100.00
38852;BME280;24605;50.092;9.182;2023-03-22T07:34:38;97532.06;;;9.81;100.00
38852;BME280;24605;50.092;9.182;2023-03-22T07:37:05;97524.25;;;9.72;100.00
38852;BME280;24605;50.092;9.182;2023-03-22T07:39:33;97537.56;;;9.86;100.00
38852;BME280;24605;50.092;9.182;2023-03-22T07:42:01;97524.66;;;10.08;100.00
38852;BME280;24605;50.092;9.182;2023-03-22T07:44:28;97529.19;;;10.14;100.00
38852;BME280;24605;50.092;9.182;2023-03-22T07:46:54;97523.59;;;10.32;100.00
38852;BME280;24605;50.092;9.182;2023-03-22T07:49:21;97528.59;;;10.65;100.00
38852;BME280;24605;50.092;9.182;2023-03-22T07:51:47;97535.00;;;10.77;100.00
38852;BME280;24605;50.092;9.182;2023-03-22T07:54:14;97526.78;;;10.95;100.00
38852;BME280;24605;50.092;9.182;2023-03-22T07:56:40;97515.00;;;10.76;100.00
38852;BME280;24605;50.092;9.182;2023-03-22T07:59:10;97522.78;;;10.85;100.00
38852;BME280;24605;50.092;9.182;2023-03-22T08:01:36;97531.28;;;11.02;100.00
38852;BME280;24605;50.092;9.182;2023-03-22T08:04:03;97505.41;;;10.98;100.00
38852;BME280;24605;50.092;9.182;2023-03-22T08:06:30;97523.06;;;10.90;100.00
38852;BME280;24605;50.092;9.182;2023-03-22T08:08:57;97522.78;;;10.85;100.00
38852;BME280;24605;50.092;9.182;2023-03-22T08:11:23;97529.03;;;10.98;100.00
38852;BME280;24605;50.092;9.182;2023-03-22T08:13:50;97531.19;;;11.25;100.00
38852;BME280;24605;50.092;9.182;2023-03-22T08:16:19;97522.13;;;11.27;100.00
38852;BME280;24605;50.092;9.182;2023-03-22T08:18:45;97523.56;;;11.15;100.00
38852;BME280;24605;50.092;9.182;2023-03-22T08:21:12;97528.28;;;11.20;100.00
38852;BME280;24605;50.092;9.182;2023-03-22T08:23:38;97521.47;;;11.25;100.00
38852;BME280;24605;50.092;9.182;2023-03-22T08:26:05;97529.84;;;11.14;100.00
38852;BME280;24605;50.092;9.182;2023-03-22T08:28:31;97525.56;;;11.28;100.00
38852;BME280;24605;50.092;9.182;2023-03-22T08:30:58;97521.91;;;11.44;100.00
38852;BME280;24605;50.092;9.182;2023-03-22T08:33:26;97528.34;;;11.41;100.00
38852;BME280;24605;50.092;9.182;2023-03-22T08:36:03;97507.78;;;11.45;100.00
38852;BME280;24605;50.092;9.182;2023-03-22T08:38:30;97529.75;;;11.59;100.00
38852;BME280;24605;50.092;9.182;2023-03-22T08:40:57;97524.72;;;11.64;100.00
38852;BME280;24605;50.092;9.182;2023-03-22T08:43:23;97526.63;;;11.70;100.00
38852;BME280;24605;50.092;9.182;2023-03-22T08:45:50;97524.53;;;11.81;100.00
38852;BME280;24605;50.092;9.182;2023-03-22T08:48:16;97512.22;;;12.03;100.00
38852;BME280;24605;50.092;9.182;2023-03-22T08:50:44;97516.91;;;12.07;100.00
38852;BME280;24605;50.092;9.182;2023-03-22T08:53:10;97532.31;;;11.96;100.00
38852;BME280;24605;50.092;9.182;2023-03-22T08:55:38;97521.97;;;12.09;100.00
38852;BME280;24605;50.092;9.182;2023-03-22T08:58:09;97522.59;;;12.11;100.00
38852;BME280;24605;50.092;9.182;2023-03-22T09:00:36;97514.81;;;12.25;99.92
38852;BME280;24605;50.092;9.182;2023-03-22T09:03:03;97508.41;;;12.05;99.18
38852;BME280;24605;50.092;9.182;2023-03-22T09:05:29;97517.50;;;11.88;100.00
38852;BME280;24605;50.092;9.182;2023-03-22T09:07:57;97515.53;;;11.90;99.63
38852;BME280;24605;50.092;9.182;2023-03-22T09:10:24;97513.19;;;11.80;98.66
38852;BME280;24605;50.092;9.182;2023-03-22T09:12:50;97502.38;;;11.90;98.76
38852;BME280;24605;50.092;9.182;2023-03-22T09:15:17;97511.75;;;12.21;98.28
38852;BME280;24605;50.092;9.182;2023-03-22T09:17:43;97515.66;;;12.25;93.95
38852;BME280;24605;50.092;9.182;2023-03-22T09:20:10;97496.91;;;12.06;95.90
38852;BME280;24605;50.092;9.182;2023-03-22T09:22:37;97507.78;;;12.03;95.77
38852;BME280;24605;50.092;9.182;2023-03-22T09:25:05;97511.00;;;12.27;94.78
38852;BME280;24605;50.092;9.182;2023-03-22T09:27:32;97507.25;;;12.72;93.67
38852;BME280;24605;50.092;9.182;2023-03-22T09:29:59;97510.72;;;12.79;91.57
38852;BME280;24605;50.092;9.182;2023-03-22T09:32:25;97502.97;;;12.70;88.93
38852;BME280;24605;50.092;9.182;2023-03-22T09:34:52;97503.44;;;12.81;88.99
38852;BME280;24605;50.092;9.182;2023-03-22T09:37:19;97504.69;;;12.85;89.04
38852;BME280;24605;50.092;9.182;2023-03-22T09:39:45;97510.34;;;12.82;87.17
38852;BME280;24605;50.092;9.182;2023-03-22T09:42:23;97444.72;;;12.03;86.47
38852;BME280;24605;50.092;9.182;2023-03-22T09:44:51;97499.53;;;12.35;87.97
38852;BME280;24605;50.092;9.182;2023-03-22T09:47:23;97497.25;;;12.25;84.75
38852;BME280;24605;50.092;9.182;2023-03-22T09:49:54;97488.88;;;12.43;85.49
38852;BME280;24605;50.092;9.182;2023-03-22T09:52:26;97483.81;;;12.42;82.97
38852;BME280;24605;50.092;9.182;2023-03-22T09:54:52;97477.41;;;12.58;84.64
38852;BME280;24605;50.092;9.182;2023-03-22T09:57:25;97479.41;;;12.84;84.18
38852;BME280;24605;50.092;9.182;2023-03-22T09:59:57;97474.34;;;12.82;83.42
38852;BME280;24605;50.092;9.182;2023-03-22T10:02:38;97466.28;;;12.97;82.87
38852;BME280;24605;50.092;9.182;2023-03-22T10:05:13;97460.59;;;13.42;82.73
38852;BME280;24605;50.092;9.182;2023-03-22T10:07:56;97462.03;;;13.52;82.30
38852;BME280;24605;50.092;9.182;2023-03-22T10:10:28;97456.97;;;13.50;82.07
38852;BME280;24605;50.092;9.182;2023-03-22T10:13:01;97468.69;;;13.41;82.45
38852;BME280;24605;50.092;9.182;2023-03-22T10:15:32;97457.56;;;13.39;81.74
38852;BME280;24605;50.092;9.182;2023-03-22T10:18:05;97433.44;;;13.42;81.61
38852;BME280;24605;50.092;9.182;2023-03-22T10:20:36;97460.03;;;13.81;80.03
38852;BME280;24605;50.092;9.182;2023-03-22T10:23:08;97450.75;;;13.91;80.89
38852;BME280;24605;50.092;9.182;2023-03-22T10:25:38;97447.06;;;14.19;80.01
38852;BME280;24605;50.092;9.182;2023-03-22T10:28:17;97454.59;;;14.09;79.04
38852;BME280;24605;50.092;9.182;2023-03-22T10:30:46;97455.16;;;14.11;78.07
38852;BME280;24605;50.092;9.182;2023-03-22T10:33:24;97457.03;;;13.97;77.93
38852;BME280;24605;50.092;9.182;2023-03-22T10:35:53;97445.44;;;13.98;77.69
38852;BME280;24605;50.092;9.182;2023-03-22T10:38:22;97447.69;;;14.08;76.76
38852;BME280;24605;50.092;9.182;2023-03-22T10:40:52;97442.59;;;14.26;76.35
38852;BME280;24605;50.092;9.182;2023-03-22T10:43:22;97449.88;;;14.38;75.95
38852;BME280;24605;50.092;9.182;2023-03-22T10:45:51;97457.03;;;13.90;75.82
38852;BME280;24605;50.092;9.182;2023-03-22T10:48:24;97457.81;;;13.91;76.95
38852;BME280;24605;50.092;9.182;2023-03-22T10:50:52;97447.06;;;13.72;78.33
38852;BME280;24605;50.092;9.182;2023-03-22T10:53:25;97451.31;;;13.93;78.75
38852;BME280;24605;50.092;9.182;2023-03-22T10:55:53;97449.50;;;13.87;77.05
38852;BME280;24605;50.092;9.182;2023-03-22T10:58:25;97450.72;;;13.78;78.26
38852;BME280;24605;50.092;9.182;2023-03-22T11:00:57;97447.88;;;14.06;78.67
38852;BME280;24605;50.092;9.182;2023-03-22T11:03:28;97444.84;;;14.23;77.12
38852;BME280;24605;50.092;9.182;2023-03-22T11:06:00;97451.72;;;14.37;76.54
38852;BME280;24605;50.092;9.182;2023-03-22T11:08:27;97458.63;;;14.32;77.29
38852;BME280;24605;50.092;9.182;2023-03-22T11:10:54;97442.97;;;14.37;77.31
38852;BME280;24605;50.092;9.182;2023-03-22T11:13:25;97435.13;;;14.10;78.06
38852;BME280;24605;50.092;9.182;2023-03-22T11:15:57;97426.81;;;14.00;77.87
38852;BME280;24605;50.092;9.182;2023-03-22T11:18:28;97444.84;;;14.16;76.23
38852;BME280;24605;50.092;9.182;2023-03-22T11:20:57;97446.28;;;14.05;77.63
38852;BME280;24605;50.092;9.182;2023-03-22T11:23:26;97440.41;;;14.03;79.18
38852;BME280;24605;50.092;9.182;2023-03-22T11:25:55;97442.16;;;14.50;77.30
38852;BME280;24605;50.092;9.182;2023-03-22T11:28:28;97418.66;;;14.35;76.52
38852;BME280;24605;50.092;9.182;2023-03-22T11:31:03;97437.72;;;14.30;76.99
38852;BME280;24605;50.092;9.182;2023-03-22T11:33:31;97439.94;;;14.40;76.12
38852;BME280;24605;50.092;9.182;2023-03-22T11:35:59;97435.03;;;14.50;74.62
38852;BME280;24605;50.092;9.182;2023-03-22T11:38:29;97429.94;;;14.55;72.99
38852;BME280;24605;50.092;9.182;2023-03-22T11:40:58;97423.13;;;14.28;72.92
38852;BME280;24605;50.092;9.182;2023-03-22T11:43:30;97429.03;;;14.23;74.58
38852;BME280;24605;50.092;9.182;2023-03-22T11:45:59;97430.75;;;14.63;73.80
38852;BME280;24605;50.092;9.182;2023-03-22T11:48:27;97427.97;;;14.44;72.70
38852;BME280;24605;50.092;9.182;2023-03-22T11:51:02;97426.75;;;14.47;72.21
38852;BME280;24605;50.092;9.182;2023-03-22T11:53:32;97418.97;;;14.65;71.89
38852;BME280;24605;50.092;9.182;2023-03-22T11:56:02;97427.78;;;15.04;71.64
38852;BME280;24605;50.092;9.182;2023-03-22T11:58:53;97419.78;;;14.66;71.36
38852;BME280;24605;50.092;9.182;2023-03-22T12:01:31;97420.47;;;15.00;71.57
38852;BME280;24605;50.092;9.182;2023-03-22T12:04:00;97416.28;;;15.31;70.84
38852;BME280;24605;50.092;9.182;2023-03-22T12:06:31;97386.53;;;15.42;69.34
38852;BME280;24605;50.092;9.182;2023-03-22T12:09:02;97399.31;;;15.45;68.47
38852;BME280;24605;50.092;9.182;2023-03-22T12:11:35;97387.28;;;15.49;70.28
38852;BME280;24605;50.092;9.182;2023-03-22T12:14:07;97388.91;;;15.76;69.69
38852;BME280;24605;50.092;9.182;2023-03-22T12:16:45;97388.94;;;16.01;68.61
38852;BME280;24605;50.092;9.182;2023-03-22T12:19:20;97387.19;;;16.13;69.86
38852;BME280;24605;50.092;9.182;2023-03-22T12:21:49;97390.38;;;16.41;67.67
38852;BME280;24605;50.092;9.182;2023-03-22T12:24:24;97386.56;;;15.93;68.70
38852;BME280;24605;50.092;9.182;2023-03-22T12:26:54;97384.50;;;15.70;69.58
38852;BME280;24605;50.092;9.182;2023-03-22T12:29:24;97387.81;;;15.90;69.78
38852;BME280;24605;50.092;9.182;2023-03-22T12:31:58;97385.69;;;15.99;68.48
38852;BME280;24605;50.092;9.182;2023-03-22T12:34:33;97385.63;;;15.80;68.56
38852;BME280;24605;50.092;9.182;2023-03-22T12:37:04;97384.69;;;15.43;68.12
38852;BME280;24605;50.092;9.182;2023-03-22T12:39:36;97372.78;;;15.33;69.78
38852;BME280;24605;50.092;9.182;2023-03-22T12:42:12;97374.78;;;15.38;69.76
38852;BME280;24605;50.092;9.182;2023-03-22T12:44:43;97361.31;;;15.46;67.64
38852;BME280;24605;50.092;9.182;2023-03-22T12:47:17;97373.34;;;15.93;65.63
38852;BME280;24605;50.092;9.182;2023-03-22T12:49:51;97362.97;;;15.91;63.80
38852;BME280;24605;50.092;9.182;2023-03-22T12:52:23;97370.06;;;15.97;63.53
38852;BME280;24605;50.092;9.182;2023-03-22T12:54:51;97372.38;;;16.12;62.37
38852;BME280;24605;50.092;9.182;2023-03-22T12:57:19;97372.72;;;16.16;61.70
38852;BME280;24605;50.092;9.182;2023-03-22T12:59:49;97363.16;;;15.96;61.93
38852;BME280;24605;50.092;9.182;2023-03-22T13:02:19;97355.69;;;16.31;61.75
38852;BME280;24605;50.092;9.182;2023-03-22T13:04:52;97348.66;;;16.73;61.26
38852;BME280;24605;50.092;9.182;2023-03-22T13:07:37;97359.88;;;16.57;58.94
38852;BME280;24605;50.092;9.182;2023-03-22T13:10:38;97366.06;;;15.88;61.88
38852;BME280;24605;50.092;9.182;2023-03-22T13:13:13;97356.84;;;15.97;62.45
38852;BME280;24605;50.092;9.182;2023-03-22T13:15:56;97348.28;;;16.21;62.59
38852;BME280;24605;50.092;9.182;2023-03-22T13:18:36;97349.28;;;16.57;60.48